Time;durP1;ratioP1;P1;durP2;ratioP2;P2;SDS_P1;SDS_P2;PMS_P1;PMS_P2;Temp;Humidity;BMP_temperature;BMP_pressure;BME280_temperature;BME280_humidity;BME280_pressure;Samples;Min_cycle;Max_cycle;Signal;HPM_P1;HPM_P2
2021/04/18 00:02:25;;;;;;;6.73;3.83;;;;;;;;;;5017691;28;20494;-72
2021/04/18 00:04:52;;;;;;;10.07;4.13;;;;;;;;;;5017450;28;20502;-71
2021/04/18 00:07:19;;;;;;;8.40;3.40;;;;;;;;;;5030027;28;20898;-71
2021/04/18 00:09:47;;;;;;;7.87;3.90;;;;;;;;;;5036209;28;20741;-71
2021/04/18 00:12:15;;;;;;;6.47;3.40;;;;;;;;;;5037240;28;20466;-71
2021/04/18 00:14:42;;;;;;;8.90;4.33;;;;;;;;;;5037929;28;20458;-72
2021/04/18 00:17:10;;;;;;;8.87;3.83;;;;;;;;;;5040813;28;20477;-71
2021/04/18 00:19:37;;;;;;;6.60;4.40;;;;;;;;;;5040175;28;20505;-71
2021/04/18 00:22:04;;;;;;;8.10;3.37;;;;;;;;;;5040443;28;20467;-71
2021/04/18 00:24:32;;;;;;;7.20;4.30;;;;;;;;;;5040317;28;20457;-71
2021/04/18 00:26:59;;;;;;;8.93;3.90;;;;;;;;;;5040852;28;20739;-71
2021/04/18 00:29:27;;;;;;;5.20;3.60;;;;;;;;;;5039402;28;20913;-72
2021/04/18 00:31:59;;;;;;;9.63;3.40;;;;;;;;;;5040055;28;20517;-72
2021/04/18 00:34:27;;;;;;;7.40;4.27;;;;;;;;;;5040812;28;20458;-71
2021/04/18 00:36:54;;;;;;;10.33;3.30;;;;;;;;;;5040225;28;20471;-71
2021/04/18 00:39:21;;;;;;;5.90;3.93;;;;;;;;;;5039403;28;20477;-71
2021/04/18 00:41:49;;;;;;;8.07;4.20;;;;;;;;;;5039994;28;20945;-71
2021/04/18 00:44:16;;;;;;;14.37;4.33;;;;;;;;;;5030191;28;20460;-71
2021/04/18 00:46:44;;;;;;;5.63;3.70;;;;;;;;;;5020362;28;20468;-71
2021/04/18 00:49:12;;;;;;;9.07;4.23;;;;;;;;;;5020002;28;20456;-70
2021/04/18 00:51:39;;;;;;;5.93;3.90;;;;;;;;;;5020156;28;20883;-72
2021/04/18 00:54:07;;;;;;;7.70;4.70;;;;;;;;;;5020139;28;20732;-71
2021/04/18 00:56:34;;;;;;;8.17;4.10;;;;;;;;;;5020513;28;20459;-71
2021/04/18 00:59:02;;;;;;;8.10;3.73;;;;;;;;;;5020190;28;20454;-71
2021/04/18 01:01:29;;;;;;;8.90;4.10;;;;;;;;;;5019399;28;21488;-70
2021/04/18 01:03:58;;;;;;;10.47;4.33;;;;;;;;;;5020070;28;20889;-71
2021/04/18 01:06:25;;;;;;;5.50;3.77;;;;;;;;;;5020381;28;20479;-71
2021/04/18 01:08:52;;;;;;;11.90;4.27;;;;;;;;;;5019771;28;20530;-70
2021/04/18 01:11:20;;;;;;;6.93;4.27;;;;;;;;;;5019962;28;20978;-70
2021/04/18 01:13:47;;;;;;;9.00;5.07;;;;;;;;;;5020090;28;20731;-72
2021/04/18 01:16:15;;;;;;;6.73;4.37;;;;;;;;;;5019781;28;20459;-71
2021/04/18 01:18:42;;;;;;;8.63;4.60;;;;;;;;;;5019394;28;20530;-71
2021/04/18 01:21:11;;;;;;;10.43;4.80;;;;;;;;;;5019525;28;20751;-71
2021/04/18 01:23:38;;;;;;;13.07;4.83;;;;;;;;;;5020043;28;20462;-71
2021/04/18 01:26:06;;;;;;;7.00;4.27;;;;;;;;;;5018624;28;20517;-71
2021/04/18 01:28:37;;;;;;;9.93;4.83;;;;;;;;;;5019306;28;20467;-71
2021/04/18 01:31:05;;;;;;;9.13;5.13;;;;;;;;;;5019223;28;20561;-71
2021/04/18 01:33:32;;;;;;;9.03;4.83;;;;;;;;;;5019427;28;20463;-71
2021/04/18 01:36:00;;;;;;;9.73;5.07;;;;;;;;;;5019393;28;20456;-71
2021/04/18 01:38:29;;;;;;;8.30;4.93;;;;;;;;;;5019656;28;20950;-71
2021/04/18 01:40:57;;;;;;;10.90;6.30;;;;;;;;;;5019427;28;20491;-72
2021/04/18 01:43:24;;;;;;;10.30;5.60;;;;;;;;;;5019909;28;20915;-71
2021/04/18 01:45:52;;;;;;;10.77;4.50;;;;;;;;;;5019448;28;20462;-71
2021/04/18 01:48:20;;;;;;;12.73;4.50;;;;;;;;;;5018774;28;20805;-71
2021/04/18 01:50:48;;;;;;;9.90;5.50;;;;;;;;;;5019349;28;20492;-71
2021/04/18 01:53:18;;;;;;;8.87;5.57;;;;;;;;;;5019245;28;20501;-71
2021/04/18 01:55:46;;;;;;;11.70;5.00;;;;;;;;;;5019583;28;20456;-71
2021/04/18 01:58:17;;;;;;;11.57;5.20;;;;;;;;;;5019080;28;20860;-71
2021/04/18 02:00:44;;;;;;;11.93;4.93;;;;;;;;;;5017724;28;20493;-71
2021/04/18 02:03:13;;;;;;;9.07;6.30;;;;;;;;;;5020067;28;20456;-72
2021/04/18 02:05:41;;;;;;;10.40;5.97;;;;;;;;;;5019708;28;20494;-72
2021/04/18 02:08:08;;;;;;;11.37;5.43;;;;;;;;;;5018415;28;20452;-71
2021/04/18 02:10:36;;;;;;;11.40;5.13;;;;;;;;;;5018966;28;20475;-71
2021/04/18 02:13:04;;;;;;;12.63;6.70;;;;;;;;;;5019101;28;20470;-72
2021/04/18 02:15:31;;;;;;;12.50;6.40;;;;;;;;;;5019113;28;20448;-71
2021/04/18 02:17:59;;;;;;;12.70;6.20;;;;;;;;;;5018690;28;20467;-71
2021/04/18 02:20:26;;;;;;;17.40;6.67;;;;;;;;;;5019169;28;20724;-71
2021/04/18 02:22:54;;;;;;;13.00;6.77;;;;;;;;;;5013568;28;20551;-72
2021/04/18 02:25:21;;;;;;;11.30;6.30;;;;;;;;;;4999741;28;20475;-72
2021/04/18 02:27:48;;;;;;;13.60;7.27;;;;;;;;;;4998424;28;20457;-72
2021/04/18 02:30:17;;;;;;;12.10;6.20;;;;;;;;;;4999498;28;20479;-72
2021/04/18 02:32:45;;;;;;;14.07;7.10;;;;;;;;;;4999080;28;20460;-72
2021/04/18 02:35:15;;;;;;;14.83;6.63;;;;;;;;;;4999096;28;20531;-71
2021/04/18 02:37:42;;;;;;;11.50;6.90;;;;;;;;;;4998608;28;20927;-71
2021/04/18 02:40:10;;;;;;;11.43;6.77;;;;;;;;;;4998411;28;21123;-71
2021/04/18 02:42:40;;;;;;;14.70;7.53;;;;;;;;;;5031747;28;20447;-71
2021/04/18 02:45:08;;;;;;;8.97;5.93;;;;;;;;;;5037808;28;20769;-72
2021/04/18 02:47:37;;;;;;;30.93;7.80;;;;;;;;;;5037381;28;20564;-71
2021/04/18 02:50:10;;;;;;;9.67;5.80;;;;;;;;;;5038020;28;20765;-71
2021/04/18 02:52:37;;;;;;;9.97;6.17;;;;;;;;;;5037826;28;20467;-71
2021/04/18 02:55:05;;;;;;;14.73;6.50;;;;;;;;;;5037930;28;20735;-72
2021/04/18 02:57:33;;;;;;;16.90;8.77;;;;;;;;;;5038033;28;20758;-72
2021/04/18 03:00:04;;;;;;;14.17;7.07;;;;;;;;;;5037759;28;20498;-72
2021/04/18 03:02:31;;;;;;;14.57;6.30;;;;;;;;;;5037610;28;20528;-71
2021/04/18 03:05:00;;;;;;;20.80;7.80;;;;;;;;;;5038185;28;20544;-71
2021/04/18 03:07:27;;;;;;;18.20;8.80;;;;;;;;;;5037272;28;20456;-71
2021/04/18 03:09:55;;;;;;;12.60;6.57;;;;;;;;;;5037337;28;20485;-71
2021/04/18 03:12:22;;;;;;;15.83;7.60;;;;;;;;;;5037422;28;20489;-71
2021/04/18 03:14:49;;;;;;;10.47;6.33;;;;;;;;;;5037442;28;20462;-71
2021/04/18 03:17:16;;;;;;;9.97;6.77;;;;;;;;;;5037896;28;20470;-71
2021/04/18 03:19:44;;;;;;;12.80;7.00;;;;;;;;;;5037086;28;20509;-72
2021/04/18 03:22:13;;;;;;;14.50;6.60;;;;;;;;;;5035216;28;20467;-71
2021/04/18 03:24:40;;;;;;;12.60;6.80;;;;;;;;;;5018239;28;20460;-71
2021/04/18 03:27:08;;;;;;;9.90;5.70;;;;;;;;;;5017591;28;20817;-71
2021/04/18 03:29:35;;;;;;;10.77;6.60;;;;;;;;;;5017552;28;20463;-72
2021/04/18 03:32:03;;;;;;;14.00;7.13;;;;;;;;;;5018058;28;20498;-72
2021/04/18 03:34:30;;;;;;;12.43;7.43;;;;;;;;;;5017876;28;20451;-70
2021/04/18 03:36:58;;;;;;;12.03;5.87;;;;;;;;;;5017861;28;20479;-72
2021/04/18 03:39:26;;;;;;;16.60;7.10;;;;;;;;;;5017451;28;20554;-71
2021/04/18 03:41:53;;;;;;;11.60;5.40;;;;;;;;;;5017851;28;20915;-72
2021/04/18 03:44:21;;;;;;;9.87;6.00;;;;;;;;;;5017509;28;20471;-71
2021/04/18 03:46:48;;;;;;;10.70;6.90;;;;;;;;;;5017717;28;20475;-71
2021/04/18 03:49:16;;;;;;;16.77;6.30;;;;;;;;;;5027258;28;20763;-71
2021/04/18 03:51:44;;;;;;;12.90;6.37;;;;;;;;;;5021405;28;20872;-72
2021/04/18 03:54:14;;;;;;;15.00;7.37;;;;;;;;;;5021045;28;20451;-70
2021/04/18 03:56:44;;;;;;;13.13;7.97;;;;;;;;;;5021313;28;20459;-71
2021/04/18 03:59:11;;;;;;;13.53;7.63;;;;;;;;;;5021029;28;20456;-71
2021/04/18 04:01:38;;;;;;;18.27;8.50;;;;;;;;;;5021521;28;20519;-72
2021/04/18 04:04:06;;;;;;;17.30;7.80;;;;;;;;;;5021351;28;20793;-72
2021/04/18 04:06:33;;;;;;;15.13;7.40;;;;;;;;;;5021940;28;20534;-71
2021/04/18 04:09:00;;;;;;;11.57;6.60;;;;;;;;;;5020925;28;20489;-71
2021/04/18 04:11:28;;;;;;;11.73;6.80;;;;;;;;;;5021596;28;20477;-72
2021/04/18 04:13:56;;;;;;;13.87;7.50;;;;;;;;;;5020679;28;20891;-72
2021/04/18 04:16:23;;;;;;;11.00;6.80;;;;;;;;;;5020569;28;20721;-71
2021/04/18 04:18:50;;;;;;;11.53;6.57;;;;;;;;;;5021108;28;20745;-71
2021/04/18 04:21:18;;;;;;;12.93;5.97;;;;;;;;;;5021269;28;20490;-71
2021/04/18 04:23:45;;;;;;;11.93;8.10;;;;;;;;;;5020941;28;20455;-71
2021/04/18 04:26:13;;;;;;;15.80;6.47;;;;;;;;;;5020796;28;20848;-73
2021/04/18 04:28:40;;;;;;;17.13;7.30;;;;;;;;;;5020647;28;21061;-71
2021/04/18 04:31:08;;;;;;;13.03;7.80;;;;;;;;;;5020486;28;20467;-72
2021/04/18 04:33:37;;;;;;;9.57;6.73;;;;;;;;;;5020803;28;20463;-71
2021/04/18 04:36:04;;;;;;;19.13;9.60;;;;;;;;;;5020250;28;20475;-71
2021/04/18 04:38:32;;;;;;;18.93;8.53;;;;;;;;;;5020257;28;20460;-71
2021/04/18 04:40:59;;;;;;;14.47;7.63;;;;;;;;;;5020467;28;20715;-72
2021/04/18 04:43:26;;;;;;;15.13;7.57;;;;;;;;;;5020104;28;20462;-71
2021/04/18 04:45:54;;;;;;;16.37;6.97;;;;;;;;;;5020456;28;20467;-72
2021/04/18 04:48:22;;;;;;;15.00;7.37;;;;;;;;;;5020233;28;20470;-72
2021/04/18 04:50:50;;;;;;;16.83;7.23;;;;;;;;;;5020959;28;20883;-71
2021/04/18 04:53:17;;;;;;;11.40;5.93;;;;;;;;;;5020503;28;20458;-71
2021/04/18 04:55:46;;;;;;;14.00;7.57;;;;;;;;;;5019578;28;20537;-71
2021/04/18 04:58:14;;;;;;;9.97;6.40;;;;;;;;;;5019699;28;20454;-71
2021/04/18 05:00:41;;;;;;;12.90;7.20;;;;;;;;;;5019632;28;20491;-71
2021/04/18 05:03:09;;;;;;;14.40;7.90;;;;;;;;;;5018612;28;21081;-71
2021/04/18 05:05:37;;;;;;;17.03;7.20;;;;;;;;;;5019529;28;20571;-71
2021/04/18 05:08:05;;;;;;;13.20;7.20;;;;;;;;;;5019526;28;20882;-71
2021/04/18 05:10:33;;;;;;;15.67;7.30;;;;;;;;;;5020149;28;20467;-71
2021/04/18 05:13:32;;;;;;;10.23;7.90;;;;;;;;;;5020015;28;20468;-71
2021/04/18 05:15:59;;;;;;;15.70;6.17;;;;;;;;;;5019908;28;20586;-71
2021/04/18 05:18:27;;;;;;;9.37;5.03;;;;;;;;;;5018956;28;20460;-71
2021/04/18 05:20:55;;;;;;;10.00;5.70;;;;;;;;;;5019510;28;20521;-71
2021/04/18 05:23:22;;;;;;;12.50;5.50;;;;;;;;;;5019632;28;20835;-71
2021/04/18 05:25:50;;;;;;;18.50;7.20;;;;;;;;;;5019368;28;20475;-72
2021/04/18 05:28:17;;;;;;;11.20;6.70;;;;;;;;;;5019463;28;20494;-71
2021/04/18 05:30:44;;;;;;;15.90;5.43;;;;;;;;;;5019092;28;20763;-71
2021/04/18 05:33:12;;;;;;;11.03;4.97;;;;;;;;;;5019250;28;20466;-71
2021/04/18 05:35:39;;;;;;;13.90;6.23;;;;;;;;;;5019082;28;20464;-71
2021/04/18 05:38:10;;;;;;;15.30;7.10;;;;;;;;;;5018789;28;20452;-71
2021/04/18 05:40:37;;;;;;;12.00;5.50;;;;;;;;;;5018442;28;20570;-73
2021/04/18 05:43:04;;;;;;;13.37;6.40;;;;;;;;;;5019039;28;20825;-70
2021/04/18 05:45:32;;;;;;;12.40;6.10;;;;;;;;;;5018729;28;20459;-71
2021/04/18 05:47:59;;;;;;;12.57;5.10;;;;;;;;;;5019253;28;20456;-71
2021/04/18 05:50:26;;;;;;;12.37;5.30;;;;;;;;;;5018718;28;20974;-71
2021/04/18 05:52:54;;;;;;;10.37;7.13;;;;;;;;;;5019023;28;20463;-71
2021/04/18 05:55:23;;;;;;;12.83;5.77;;;;;;;;;;5018763;28;20460;-71
2021/04/18 05:57:51;;;;;;;13.43;7.07;;;;;;;;;;5019040;28;20456;-71
2021/04/18 06:00:19;;;;;;;9.57;5.33;;;;;;;;;;5019088;28;20479;-71
2021/04/18 06:02:46;;;;;;;8.10;5.20;;;;;;;;;;5019335;28;20458;-71
2021/04/18 06:05:14;;;;;;;17.37;7.10;;;;;;;;;;5018310;28;20452;-71
2021/04/18 06:07:42;;;;;;;9.07;5.33;;;;;;;;;;5019368;28;20459;-72
2021/04/18 06:10:10;;;;;;;12.97;6.27;;;;;;;;;;5018182;28;20472;-71
2021/04/18 06:12:38;;;;;;;18.97;6.47;;;;;;;;;;5017914;28;20882;-71
2021/04/18 06:15:09;;;;;;;8.40;5.70;;;;;;;;;;5018094;28;20593;-71
2021/04/18 06:17:38;;;;;;;14.00;8.30;;;;;;;;;;5015771;28;20542;-71
2021/04/18 06:20:06;;;;;;;16.53;6.67;;;;;;;;;;5018234;28;20463;-71
2021/04/18 06:22:59;;;;;;;16.50;6.17;;;;;;;;;;5018278;28;20899;-71
2021/04/18 06:25:27;;;;;;;10.17;5.50;;;;;;;;;;5012294;28;20535;-71
2021/04/18 06:28:04;;;;;;;11.20;5.10;;;;;;;;;;5014000;28;20467;-71
2021/04/18 06:30:31;;;;;;;10.97;5.30;;;;;;;;;;5017975;28;20467;-71
2021/04/18 06:32:59;;;;;;;13.13;6.00;;;;;;;;;;5017248;28;20906;-71
2021/04/18 06:35:26;;;;;;;8.23;5.47;;;;;;;;;;5000049;28;20491;-71
2021/04/18 06:37:53;;;;;;;12.03;6.10;;;;;;;;;;4998038;28;20861;-71
2021/04/18 06:40:21;;;;;;;11.47;5.73;;;;;;;;;;4998239;28;20485;-71
2021/04/18 06:42:49;;;;;;;8.00;4.67;;;;;;;;;;4998665;28;20483;-71
2021/04/18 06:45:17;;;;;;;11.17;5.23;;;;;;;;;;4999533;28;20515;-71
2021/04/18 06:47:45;;;;;;;12.53;4.87;;;;;;;;;;5018221;28;20942;-71
2021/04/18 06:50:12;;;;;;;12.00;4.27;;;;;;;;;;5017439;28;20460;-69
2021/04/18 06:52:40;;;;;;;11.30;4.80;;;;;;;;;;5018455;28;20460;-72
2021/04/18 06:55:08;;;;;;;11.73;5.07;;;;;;;;;;5018114;28;20730;-71
2021/04/18 06:57:35;;;;;;;10.77;4.90;;;;;;;;;;5018015;28;20517;-71
2021/04/18 07:00:03;;;;;;;9.30;4.80;;;;;;;;;;5018552;28;21100;-70
2021/04/18 07:02:32;;;;;;;14.83;5.60;;;;;;;;;;5018544;28;20891;-71
2021/04/18 07:05:00;;;;;;;7.33;4.53;;;;;;;;;;5018369;28;20868;-71
2021/04/18 07:07:28;;;;;;;12.10;6.93;;;;;;;;;;5018574;28;20478;-71
2021/04/18 07:09:56;;;;;;;10.93;6.63;;;;;;;;;;5018920;28;20571;-72
2021/04/18 07:12:27;;;;;;;8.80;5.13;;;;;;;;;;5018812;28;20478;-70
2021/04/18 07:14:54;;;;;;;8.10;5.33;;;;;;;;;;5017085;28;20756;-71
2021/04/18 07:17:22;;;;;;;11.80;5.70;;;;;;;;;;5018751;28;20469;-70
2021/04/18 07:19:51;;;;;;;10.97;5.20;;;;;;;;;;5017795;28;20462;-72
2021/04/18 07:22:19;;;;;;;10.60;5.60;;;;;;;;;;5017401;28;20487;-71
2021/04/18 07:24:50;;;;;;;9.10;4.70;;;;;;;;;;5017357;28;20456;-72
2021/04/18 07:27:18;;;;;;;10.40;5.87;;;;;;;;;;5017816;28;21212;-71
2021/04/18 07:29:53;;;;;;;14.10;6.23;;;;;;;;;;5016755;28;20459;-71
2021/04/18 07:32:21;;;;;;;8.43;4.53;;;;;;;;;;5017322;28;20875;-71
2021/04/18 07:34:48;;;;;;;17.67;5.13;;;;;;;;;;5017539;28;20467;-71
2021/04/18 07:37:17;;;;;;;10.80;5.60;;;;;;;;;;5017659;28;20463;-70
2021/04/18 07:39:53;;;;;;;8.90;4.63;;;;;;;;;;5016103;28;20455;-71
2021/04/18 07:42:37;;;;;;;9.70;4.33;;;;;;;;;;5017827;28;20487;-71
2021/04/18 07:45:08;;;;;;;10.33;4.60;;;;;;;;;;5017249;28;20489;-72
2021/04/18 07:47:37;;;;;;;11.80;5.13;;;;;;;;;;5017742;28;20456;-71
2021/04/18 07:50:07;;;;;;;15.07;5.70;;;;;;;;;;5015383;28;20456;-70
2021/04/18 07:52:40;;;;;;;9.10;4.80;;;;;;;;;;5015989;28;20863;-71
2021/04/18 07:55:41;;;;;;;8.27;5.90;;;;;;;;;;5015659;28;20460;-71
2021/04/18 07:58:09;;;;;;;7.70;4.97;;;;;;;;;;5015502;28;20496;-71
2021/04/18 08:00:37;;;;;;;10.00;5.50;;;;;;;;;;5016260;28;20487;-71
2021/04/18 08:03:06;;;;;;;11.50;5.37;;;;;;;;;;5016944;28;20463;-70
2021/04/18 08:05:34;;;;;;;13.87;5.57;;;;;;;;;;5016880;28;20852;-71
2021/04/18 08:08:14;;;;;;;8.53;4.03;;;;;;;;;;5018293;28;20477;-71
2021/04/18 08:10:42;;;;;;;8.50;4.93;;;;;;;;;;5018833;28;20470;-71
2021/04/18 08:13:13;;;;;;;10.47;5.20;;;;;;;;;;5017042;28;20455;-71
2021/04/18 08:15:46;;;;;;;9.20;5.27;;;;;;;;;;5017790;28;20537;-71
2021/04/18 08:18:20;;;;;;;10.07;5.37;;;;;;;;;;5016421;28;20891;-73
2021/04/18 08:20:48;;;;;;;8.63;4.87;;;;;;;;;;5016407;28;20487;-71
2021/04/18 08:23:18;;;;;;;8.83;5.70;;;;;;;;;;5017117;28;20749;-71
2021/04/18 08:26:03;;;;;;;10.27;4.90;;;;;;;;;;5015953;28;20717;-70
2021/04/18 08:28:32;;;;;;;9.53;5.40;;;;;;;;;;5002240;28;20455;-70
2021/04/18 08:31:08;;;;;;;11.77;5.10;;;;;;;;;;5017390;28;20464;-70
2021/04/18 08:33:45;;;;;;;13.73;5.90;;;;;;;;;;5016423;28;20455;-69
2021/04/18 08:36:17;;;;;;;9.30;5.10;;;;;;;;;;5018717;28;20830;-71
2021/04/18 08:38:47;;;;;;;8.50;4.97;;;;;;;;;;5019064;28;20679;-71
2021/04/18 08:41:16;;;;;;;13.70;6.33;;;;;;;;;;5019754;28;20487;-70
2021/04/18 08:43:44;;;;;;;12.03;5.60;;;;;;;;;;5019326;28;20455;-70
2021/04/18 08:46:12;;;;;;;6.47;4.73;;;;;;;;;;5019573;28;20809;-70
2021/04/18 08:48:39;;;;;;;12.37;6.13;;;;;;;;;;5021170;28;20469;-70
2021/04/18 08:51:08;;;;;;;9.40;4.90;;;;;;;;;;5019804;28;20470;-70
2021/04/18 08:54:03;;;;;;;9.60;5.60;;;;;;;;;;5020663;28;20850;-71
2021/04/18 08:56:51;;;;;;;6.40;4.33;;;;;;;;;;4971379;28;20468;-71
2021/04/18 08:59:22;;;;;;;7.63;5.20;;;;;;;;;;5005079;28;20451;-73
2021/04/18 09:01:56;;;;;;;11.70;5.70;;;;;;;;;;5019974;28;20491;-71
2021/04/18 09:04:23;;;;;;;9.57;5.10;;;;;;;;;;5014988;28;20539;-71
2021/04/18 09:06:51;;;;;;;7.97;5.50;;;;;;;;;;5000125;28;20469;-71
2021/04/18 09:09:19;;;;;;;11.10;5.43;;;;;;;;;;5000150;28;20506;-71
2021/04/18 09:11:48;;;;;;;10.03;5.53;;;;;;;;;;5000499;28;20477;-71
2021/04/18 09:14:20;;;;;;;14.50;5.20;;;;;;;;;;4999998;28;20543;-71
2021/04/18 09:16:49;;;;;;;8.97;5.30;;;;;;;;;;4999612;28;20469;-70
2021/04/18 09:19:24;;;;;;;9.50;4.93;;;;;;;;;;4998557;28;20896;-72
2021/04/18 09:22:04;;;;;;;8.53;5.30;;;;;;;;;;4999921;28;20492;-71
2021/04/18 09:24:33;;;;;;;9.10;5.67;;;;;;;;;;4999816;28;20464;-71
2021/04/18 09:27:03;;;;;;;7.43;5.10;;;;;;;;;;4998813;28;20551;-71
2021/04/18 09:29:34;;;;;;;12.50;6.17;;;;;;;;;;5012017;28;20539;-71
2021/04/18 09:32:07;;;;;;;15.70;5.93;;;;;;;;;;5019212;28;20468;-71
2021/04/18 09:37:39;;;;;;;7.30;5.30;;;;;;;;;;5018351;28;20473;-71
2021/04/18 09:40:08;;;;;;;16.03;5.63;;;;;;;;;;5018453;28;20479;-71
2021/04/18 09:42:37;;;;;;;10.93;5.77;;;;;;;;;;5018714;28;20591;-70
2021/04/18 09:45:10;;;;;;;12.13;6.13;;;;;;;;;;5018905;28;20610;-70
2021/04/18 09:47:38;;;;;;;9.50;6.70;;;;;;;;;;5017148;28;20475;-70
2021/04/18 09:50:07;;;;;;;11.33;5.77;;;;;;;;;;5007747;28;20462;-71
2021/04/18 09:52:38;;;;;;;7.77;5.40;;;;;;;;;;5017971;28;20467;-72
2021/04/18 09:55:17;;;;;;;11.17;6.07;;;;;;;;;;4997994;28;20459;-71
2021/04/18 09:57:45;;;;;;;9.30;5.20;;;;;;;;;;5001279;28;20467;-70
2021/04/18 10:00:16;;;;;;;7.97;5.30;;;;;;;;;;5018644;28;20513;-70
2021/04/18 10:02:57;;;;;;;7.00;5.13;;;;;;;;;;5010063;28;20564;-72
2021/04/18 10:05:34;;;;;;;11.13;5.37;;;;;;;;;;5011210;28;20456;-71
2021/04/18 10:08:15;;;;;;;9.80;6.17;;;;;;;;;;5013586;28;20793;-69
2021/04/18 10:10:45;;;;;;;9.27;4.60;;;;;;;;;;5015080;28;20462;-73
2021/04/18 10:13:14;;;;;;;11.20;5.90;;;;;;;;;;5018305;28;20469;-72
2021/04/18 10:15:54;;;;;;;10.73;5.70;;;;;;;;;;5020469;28;20452;-70
2021/04/18 10:18:23;;;;;;;9.83;5.77;;;;;;;;;;5022561;28;20514;-71
2021/04/18 10:21:17;;;;;;;9.57;5.60;;;;;;;;;;5023475;28;20525;-70
2021/04/18 10:23:45;;;;;;;10.10;5.17;;;;;;;;;;5019333;28;20460;-72
2021/04/18 10:26:16;;;;;;;9.83;5.40;;;;;;;;;;5016201;28;20789;-70
2021/04/18 10:28:44;;;;;;;10.33;4.87;;;;;;;;;;5018110;28;20480;-70
2021/04/18 10:31:16;;;;;;;8.80;5.60;;;;;;;;;;5017683;28;20460;-70
2021/04/18 10:33:45;;;;;;;9.90;5.43;;;;;;;;;;5020144;28;20466;-70
2021/04/18 10:36:13;;;;;;;8.80;5.37;;;;;;;;;;5008202;28;20449;-71
2021/04/18 10:38:43;;;;;;;8.13;5.00;;;;;;;;;;4997800;28;21135;-71
2021/04/18 10:41:11;;;;;;;9.00;4.57;;;;;;;;;;5013986;28;20494;-71
2021/04/18 10:43:40;;;;;;;7.33;5.13;;;;;;;;;;5017852;28;20455;-71
2021/04/18 10:46:08;;;;;;;6.43;4.40;;;;;;;;;;5017492;28;20452;-70
2021/04/18 10:48:36;;;;;;;12.07;5.17;;;;;;;;;;5017731;28;20455;-70
2021/04/18 10:51:04;;;;;;;7.20;4.80;;;;;;;;;;5016833;28;20474;-70
2021/04/18 10:53:32;;;;;;;11.63;6.03;;;;;;;;;;5016837;28;20459;-71
2021/04/18 10:55:59;;;;;;;9.90;5.37;;;;;;;;;;5017192;28;20912;-71
2021/04/18 10:58:27;;;;;;;11.13;5.70;;;;;;;;;;5016537;28;20756;-71
2021/04/18 11:00:55;;;;;;;8.20;5.67;;;;;;;;;;5016507;28;20568;-71
2021/04/18 11:03:23;;;;;;;9.53;6.70;;;;;;;;;;5017097;28;20495;-71
2021/04/18 11:05:53;;;;;;;11.40;6.43;;;;;;;;;;5017203;28;20463;-71
2021/04/18 11:08:25;;;;;;;7.27;5.07;;;;;;;;;;5015956;28;20594;-71
2021/04/18 11:10:54;;;;;;;9.10;5.37;;;;;;;;;;5015481;28;20459;-71
2021/04/18 11:13:26;;;;;;;7.83;4.63;;;;;;;;;;5017053;28;20499;-71
2021/04/18 11:16:14;;;;;;;11.40;6.30;;;;;;;;;;5004371;28;20530;-72
2021/04/18 11:18:51;;;;;;;9.10;4.53;;;;;;;;;;5004924;28;20447;-71
2021/04/18 11:21:24;;;;;;;9.90;5.60;;;;;;;;;;5015946;28;20582;-72
2021/04/18 11:23:56;;;;;;;11.10;5.87;;;;;;;;;;5016635;28;20484;-71
2021/04/18 11:26:34;;;;;;;10.00;5.77;;;;;;;;;;5015831;28;20558;-71
2021/04/18 11:29:03;;;;;;;10.10;6.00;;;;;;;;;;5016404;28;20482;-71
2021/04/18 11:31:38;;;;;;;12.17;6.47;;;;;;;;;;5016377;28;20533;-71
2021/04/18 11:34:07;;;;;;;8.20;6.33;;;;;;;;;;5016242;28;20970;-71
2021/04/18 11:36:38;;;;;;;15.33;5.90;;;;;;;;;;5015370;28;20879;-71
2021/04/18 11:39:08;;;;;;;8.47;5.33;;;;;;;;;;5016009;28;20455;-71
2021/04/18 11:41:37;;;;;;;11.50;6.30;;;;;;;;;;5016313;28;20899;-72
2021/04/18 11:44:06;;;;;;;13.23;6.50;;;;;;;;;;5016135;28;20463;-71
2021/04/18 11:46:35;;;;;;;10.67;5.60;;;;;;;;;;5016851;28;20460;-71
2021/04/18 11:49:03;;;;;;;10.07;6.17;;;;;;;;;;5015874;28;20455;-71
2021/04/18 11:51:30;;;;;;;12.53;6.17;;;;;;;;;;5017027;28;20897;-71
2021/04/18 11:53:59;;;;;;;10.90;6.33;;;;;;;;;;5016280;28;20452;-71
2021/04/18 11:56:26;;;;;;;7.33;5.50;;;;;;;;;;5016689;28;20458;-71
2021/04/18 11:58:53;;;;;;;12.10;6.23;;;;;;;;;;5016844;28;20542;-72
2021/04/18 12:01:21;;;;;;;12.87;7.17;;;;;;;;;;5016641;28;20513;-71
2021/04/18 12:03:48;;;;;;;8.00;6.00;;;;;;;;;;5016184;28;20467;-71
2021/04/18 12:06:15;;;;;;;9.07;6.20;;;;;;;;;;5017205;28;20459;-71
2021/04/18 12:08:43;;;;;;;10.30;6.03;;;;;;;;;;5016149;28;20456;-71
2021/04/18 12:11:11;;;;;;;13.27;7.27;;;;;;;;;;5018337;28;20710;-71
2021/04/18 12:13:38;;;;;;;8.00;6.47;;;;;;;;;;5019023;28;20525;-71
2021/04/18 12:16:19;;;;;;;12.37;6.53;;;;;;;;;;5019756;28;20517;-71
2021/04/18 12:18:46;;;;;;;12.87;6.57;;;;;;;;;;5020189;28;20463;-72
2021/04/18 12:21:14;;;;;;;9.07;6.47;;;;;;;;;;5019757;28;20953;-72
2021/04/18 12:23:44;;;;;;;9.40;5.60;;;;;;;;;;5020562;28;20463;-71
2021/04/18 12:26:17;;;;;;;9.30;6.87;;;;;;;;;;5019322;28;20970;-72
2021/04/18 12:28:44;;;;;;;10.00;5.60;;;;;;;;;;5019556;28;20973;-72
2021/04/18 12:31:11;;;;;;;12.97;6.70;;;;;;;;;;5020791;28;20509;-71
2021/04/18 12:33:39;;;;;;;10.63;6.30;;;;;;;;;;5004499;28;20884;-72
2021/04/18 12:36:07;;;;;;;8.80;5.90;;;;;;;;;;5019359;28;20455;-71
2021/04/18 12:38:35;;;;;;;8.47;5.90;;;;;;;;;;5018230;28;20846;-71
2021/04/18 12:41:04;;;;;;;14.00;5.90;;;;;;;;;;5019610;28;20483;-72
2021/04/18 12:43:34;;;;;;;13.90;5.50;;;;;;;;;;5019790;28;20934;-70
2021/04/18 12:46:03;;;;;;;7.20;5.23;;;;;;;;;;5019656;28;20457;-70
2021/04/18 12:48:32;;;;;;;8.53;5.40;;;;;;;;;;5019791;28;20474;-71
2021/04/18 12:51:00;;;;;;;10.43;5.43;;;;;;;;;;5019163;28;21052;-70
2021/04/18 12:53:28;;;;;;;10.40;6.10;;;;;;;;;;5019245;28;20467;-70
2021/04/18 12:55:57;;;;;;;16.23;6.90;;;;;;;;;;5020268;28;20538;-71
2021/04/18 12:58:26;;;;;;;9.23;5.10;;;;;;;;;;5018719;28;20475;-71
2021/04/18 13:00:55;;;;;;;8.07;5.03;;;;;;;;;;5020735;28;20888;-71
2021/04/18 13:03:23;;;;;;;8.97;5.27;;;;;;;;;;5020328;28;20941;-72
2021/04/18 13:05:52;;;;;;;8.00;5.00;;;;;;;;;;5019386;28;20555;-71
2021/04/18 13:08:46;;;;;;;9.70;5.20;;;;;;;;;;5018487;28;20578;-71
2021/04/18 13:11:14;;;;;;;7.10;5.63;;;;;;;;;;5018357;28;20915;-72
2021/04/18 13:13:41;;;;;;;7.90;5.03;;;;;;;;;;5018416;28;20451;-71
2021/04/18 13:16:09;;;;;;;6.63;4.40;;;;;;;;;;5018954;28;20490;-71
2021/04/18 13:18:37;;;;;;;10.20;5.40;;;;;;;;;;5016897;28;20499;-71
2021/04/18 13:21:04;;;;;;;5.63;4.23;;;;;;;;;;5017749;28;20499;-71
2021/04/18 13:23:32;;;;;;;6.40;4.67;;;;;;;;;;5018511;28;20540;-71
2021/04/18 13:25:59;;;;;;;8.23;4.40;;;;;;;;;;5018234;28;20480;-71
2021/04/18 13:28:26;;;;;;;6.57;4.60;;;;;;;;;;5018714;28;20704;-71
2021/04/18 13:30:54;;;;;;;7.33;4.63;;;;;;;;;;5018460;28;21401;-71
2021/04/18 13:33:22;;;;;;;5.77;4.53;;;;;;;;;;5017935;28;20475;-71
2021/04/18 13:35:49;;;;;;;7.20;4.77;;;;;;;;;;5018293;28;20455;-71
2021/04/18 13:38:17;;;;;;;6.70;5.53;;;;;;;;;;5017153;28;20985;-71
2021/04/18 13:40:44;;;;;;;6.40;5.00;;;;;;;;;;5017509;28;20452;-72
2021/04/18 13:43:12;;;;;;;7.97;4.83;;;;;;;;;;5018075;28;20474;-71
2021/04/18 13:45:39;;;;;;;8.70;5.50;;;;;;;;;;5018151;28;21047;-71
2021/04/18 13:48:07;;;;;;;7.80;6.17;;;;;;;;;;5016893;28;20470;-72
2021/04/18 13:50:37;;;;;;;6.53;4.70;;;;;;;;;;5017929;28;20707;-72
2021/04/18 13:53:05;;;;;;;6.90;4.53;;;;;;;;;;5018130;28;20459;-72
2021/04/18 13:55:32;;;;;;;6.80;5.23;;;;;;;;;;5018349;28;20463;-72
2021/04/18 13:57:59;;;;;;;9.00;5.57;;;;;;;;;;5018012;28;20792;-72
2021/04/18 14:00:26;;;;;;;7.60;5.20;;;;;;;;;;5017390;28;20550;-72
2021/04/18 14:02:54;;;;;;;6.63;4.90;;;;;;;;;;5016419;28;20506;-72
2021/04/18 14:05:21;;;;;;;6.10;4.83;;;;;;;;;;5017579;28;20499;-72
2021/04/18 14:07:49;;;;;;;9.90;4.80;;;;;;;;;;5016938;28;20459;-72
2021/04/18 14:10:17;;;;;;;7.90;4.73;;;;;;;;;;5017749;28;20494;-72
2021/04/18 14:12:44;;;;;;;6.60;4.63;;;;;;;;;;5018098;28;20451;-72
2021/04/18 14:15:15;;;;;;;8.10;5.20;;;;;;;;;;5017954;28;20467;-72
2021/04/18 14:17:43;;;;;;;11.10;5.97;;;;;;;;;;5017396;28;20714;-71
2021/04/18 14:20:12;;;;;;;8.30;4.87;;;;;;;;;;5017509;28;20464;-72
2021/04/18 14:22:39;;;;;;;9.27;5.60;;;;;;;;;;5017455;28;20483;-72
2021/04/18 14:25:10;;;;;;;7.03;4.77;;;;;;;;;;5014032;28;20475;-72
2021/04/18 14:27:39;;;;;;;7.70;5.53;;;;;;;;;;4997290;28;20456;-73
2021/04/18 14:30:10;;;;;;;7.10;5.57;;;;;;;;;;4998035;28;20499;-73
2021/04/18 14:32:37;;;;;;;6.73;4.90;;;;;;;;;;4997216;28;20484;-71
2021/04/18 14:35:05;;;;;;;10.80;5.23;;;;;;;;;;5003773;28;20463;-71
2021/04/18 14:37:36;;;;;;;6.73;4.83;;;;;;;;;;5016658;28;20460;-72
2021/04/18 14:40:05;;;;;;;6.60;5.23;;;;;;;;;;5018038;28;20460;-72
2021/04/18 14:42:33;;;;;;;12.80;4.87;;;;;;;;;;5017713;28;20788;-71
2021/04/18 14:45:00;;;;;;;7.80;5.10;;;;;;;;;;5017280;28;20459;-71
2021/04/18 14:47:28;;;;;;;7.40;5.73;;;;;;;;;;5017701;28;20451;-71
2021/04/18 14:49:55;;;;;;;6.30;4.67;;;;;;;;;;5018528;28;20900;-71
2021/04/18 14:52:23;;;;;;;8.07;5.73;;;;;;;;;;5017210;28;20806;-71